createdAt,value
2018-05-13T00:00:00.291Z,100085.77
2018-05-13T00:02:27.708Z,100085.38
2018-05-13T00:04:55.120Z,100084.00
2018-05-13T00:07:22.564Z,100081.00
2018-05-13T00:09:49.984Z,100081.19
2018-05-13T00:12:17.403Z,100080.98
2018-05-13T00:14:44.828Z,100075.03
2018-05-13T00:17:12.247Z,100072.25
2018-05-13T00:19:39.677Z,100076.59
2018-05-13T00:22:07.105Z,100074.23
2018-05-13T00:24:34.533Z,100072.03
2018-05-13T00:27:01.956Z,100065.05
2018-05-13T00:29:29.376Z,100071.39
2018-05-13T00:31:57.104Z,100071.39
2018-05-13T00:34:24.513Z,100069.41
2018-05-13T00:36:51.939Z,100067.63
2018-05-13T00:39:19.386Z,100064.45
2018-05-13T00:41:46.801Z,100068.39
2018-05-13T00:44:14.232Z,100066.62
2018-05-13T00:46:41.662Z,100066.78
2018-05-13T00:49:09.097Z,100066.80
2018-05-13T00:51:36.745Z,100067.38
2018-05-13T00:54:16.044Z,100072.55
2018-05-13T00:56:43.786Z,100071.31
2018-05-13T00:59:11.210Z,100064.16
2018-05-13T01:01:38.697Z,100062.17
2018-05-13T01:04:06.396Z,100060.19
2018-05-13T01:06:34.728Z,100062.94
2018-05-13T01:09:02.145Z,100059.77
2018-05-13T01:11:29.584Z,100064.70
2018-05-13T01:13:57.004Z,100058.14
2018-05-13T01:16:24.456Z,100060.14
2018-05-13T01:18:51.866Z,100056.38
2018-05-13T01:21:19.284Z,100059.12
2018-05-13T01:23:46.732Z,100051.61
2018-05-13T01:26:14.152Z,100045.25
2018-05-13T01:28:41.926Z,100048.62
2018-05-13T01:31:09.331Z,100046.03
2018-05-13T01:33:36.748Z,100046.99
2018-05-13T01:36:04.180Z,100044.59
2018-05-13T01:38:31.594Z,100041.20
2018-05-13T01:40:59.026Z,100044.58
2018-05-13T01:43:26.460Z,100039.59
2018-05-13T01:45:53.885Z,100040.18
2018-05-13T01:48:21.332Z,100038.18
2018-05-13T01:50:48.798Z,100037.94
2018-05-13T01:53:16.172Z,100035.55
2018-05-13T01:55:43.604Z,100037.70
2018-05-13T01:58:11.027Z,100031.76
2018-05-13T02:00:38.468Z,100033.52
2018-05-13T02:03:05.883Z,100036.30
2018-05-13T02:05:33.312Z,100033.67
2018-05-13T02:08:00.764Z,100029.67
2018-05-13T02:10:28.192Z,100025.12
2018-05-13T02:12:55.600Z,100027.49
2018-05-13T02:15:23.021Z,100033.04
2018-05-13T02:17:50.801Z,100021.36
2018-05-13T02:20:18.222Z,100018.58
2018-05-13T02:22:45.640Z,100018.00
2018-05-13T02:25:13.072Z,100022.95
2018-05-13T02:27:40.494Z,100022.34
2018-05-13T02:30:08.079Z,100022.53
2018-05-13T02:32:35.489Z,100018.16
2018-05-13T02:35:02.904Z,100014.13
2018-05-13T02:37:30.349Z,100012.55
2018-05-13T02:39:57.757Z,100013.33
2018-05-13T02:42:25.176Z,100007.38
2018-05-13T02:44:52.606Z,100006.33
2018-05-13T02:47:20.050Z,100006.48
2018-05-13T02:49:47.476Z,100014.22
2018-05-13T02:52:14.900Z,100009.29
2018-05-13T02:54:42.316Z,100001.59
2018-05-13T02:57:09.756Z,100011.69
2018-05-13T02:59:37.164Z,100016.84
2018-05-13T03:02:04.594Z,100003.37
2018-05-13T03:04:32.004Z,100003.96
2018-05-13T03:06:59.432Z,100004.52
2018-05-13T03:09:27.252Z,100005.90
2018-05-13T03:11:54.662Z,99997.40
2018-05-13T03:14:22.076Z,100005.93
2018-05-13T03:16:49.504Z,100005.09
2018-05-13T03:19:16.916Z,100006.05
2018-05-13T03:21:44.710Z,100009.59
2018-05-13T03:24:12.129Z,100008.61
2018-05-13T03:26:39.544Z,100012.15
2018-05-13T03:29:06.980Z,100010.36
2018-05-13T03:31:34.399Z,99999.67
2018-05-13T03:34:01.841Z,100004.05
2018-05-13T03:36:29.262Z,99999.70
2018-05-13T03:38:56.995Z,100001.31
2018-05-13T03:41:24.437Z,100005.28
2018-05-13T03:43:51.848Z,100006.89
2018-05-13T03:46:19.280Z,100003.31
2018-05-13T03:48:46.705Z,99999.80
2018-05-13T03:51:14.119Z,100000.38
2018-05-13T03:53:41.559Z,100001.22
2018-05-13T03:56:08.969Z,99995.89
2018-05-13T03:58:36.399Z,99997.52
2018-05-13T04:01:03.824Z,100000.90
2018-05-13T04:03:31.586Z,100006.45
2018-05-13T04:05:58.996Z,100006.29
2018-05-13T04:08:47.033Z,100000.34
2018-05-13T04:11:26.137Z,100005.91
2018-05-13T04:14:05.720Z,100006.71
2018-05-13T04:16:33.811Z,100000.41
2018-05-13T04:19:01.236Z,100000.67
2018-05-13T04:21:28.685Z,100005.67
2018-05-13T04:23:56.115Z,100001.34
2018-05-13T04:26:23.540Z,100004.93
2018-05-13T04:28:50.970Z,99998.86
2018-05-13T04:31:18.392Z,99997.67
2018-05-13T04:33:45.817Z,99996.32
2018-05-13T04:36:13.242Z,99995.18
2018-05-13T04:38:40.652Z,99990.44
2018-05-13T04:41:08.392Z,99989.66
2018-05-13T04:43:35.808Z,99986.91
2018-05-13T04:46:03.229Z,99982.45
2018-05-13T04:48:30.662Z,99972.13
2018-05-13T04:50:58.092Z,99976.30
2018-05-13T04:53:25.504Z,99970.80
2018-05-13T04:55:52.916Z,99966.97
2018-05-13T04:58:20.348Z,99973.36
2018-05-13T05:00:47.772Z,99976.12
2018-05-13T05:03:15.192Z,99970.47
2018-05-13T05:05:42.627Z,99974.52
2018-05-13T05:08:10.041Z,99968.50
2018-05-13T05:10:37.475Z,99971.96
2018-05-13T05:13:04.899Z,99968.48
2018-05-13T05:15:32.315Z,99967.96
2018-05-13T05:17:59.898Z,99968.47
2018-05-13T05:20:27.323Z,99965.53
2018-05-13T05:22:54.765Z,99970.53
2018-05-13T05:25:22.172Z,99976.09
2018-05-13T05:27:49.783Z,99980.70
2018-05-13T05:30:17.104Z,99983.43
2018-05-13T05:32:44.853Z,99983.54
2018-05-13T05:35:12.256Z,99978.08
2018-05-13T05:37:39.673Z,99978.80
2018-05-13T05:40:07.397Z,99976.92
2018-05-13T05:42:34.808Z,99980.68
2018-05-13T05:45:02.207Z,99977.56
2018-05-13T05:47:29.712Z,99981.55
2018-05-13T05:49:57.114Z,99981.92
2018-05-13T05:52:24.569Z,99986.14
2018-05-13T05:54:52.272Z,99988.44
2018-05-13T05:57:19.692Z,99985.37
2018-05-13T05:59:47.094Z,99988.91
2018-05-13T06:02:14.523Z,99992.45
2018-05-13T06:04:41.927Z,99992.70
2018-05-13T06:07:09.344Z,99994.96
2018-05-13T06:09:36.769Z,99993.42
2018-05-13T06:12:04.173Z,99991.56
2018-05-13T06:14:31.595Z,99995.84
2018-05-13T06:16:59.357Z,100001.39
2018-05-13T06:19:26.763Z,99994.52
2018-05-13T06:21:54.178Z,99992.38
2018-05-13T06:24:21.592Z,99991.74
2018-05-13T06:26:49.000Z,99983.47
2018-05-13T06:29:16.610Z,99976.35
2018-05-13T06:31:44.285Z,99981.35
2018-05-13T06:34:11.684Z,99978.45
2018-05-13T06:36:39.149Z,99982.58
2018-05-13T06:39:06.612Z,99972.42
2018-05-13T06:41:34.031Z,99967.84
2018-05-13T06:44:01.735Z,99970.36
2018-05-13T06:46:29.203Z,99970.69
2018-05-13T06:48:56.628Z,99975.30
2018-05-13T06:51:24.160Z,99973.66
2018-05-13T06:53:51.460Z,99974.11
2018-05-13T06:56:18.886Z,99970.48
2018-05-13T06:58:46.296Z,99971.88
2018-05-13T07:01:13.751Z,99977.72
2018-05-13T07:03:41.161Z,99980.16
2018-05-13T07:06:08.572Z,99982.14
2018-05-13T07:08:36.231Z,99982.29
2018-05-13T07:11:03.645Z,99975.54
2018-05-13T07:13:31.039Z,99975.15
2018-05-13T07:15:58.635Z,99969.53
2018-05-13T07:18:26.046Z,99965.09
2018-05-13T07:20:53.447Z,99964.70
2018-05-13T07:23:20.872Z,99970.19
2018-05-13T07:25:48.286Z,99967.75
2018-05-13T07:28:15.700Z,99968.41
2018-05-13T07:30:43.119Z,99967.70
2018-05-13T07:33:10.529Z,99963.83
2018-05-13T07:35:38.294Z,99965.23
2018-05-13T07:38:05.699Z,99964.35
2018-05-13T07:40:33.104Z,99956.95
2018-05-13T07:43:00.519Z,99959.97
2018-05-13T07:45:27.933Z,99958.52
2018-05-13T07:47:55.335Z,99957.98
2018-05-13T07:50:23.115Z,99955.27
2018-05-13T07:52:50.512Z,99948.27
2018-05-13T07:55:17.922Z,99943.57
2018-05-13T07:57:45.337Z,99932.84
2018-05-13T08:00:12.744Z,99928.30
2018-05-13T08:02:40.165Z,99921.39
2018-05-13T08:05:07.893Z,99914.50
2018-05-13T08:07:35.301Z,99914.56
2018-05-13T08:10:02.707Z,99908.30
2018-05-13T08:12:30.445Z,99912.81
2018-05-13T08:14:57.959Z,99914.77
2018-05-13T08:17:25.367Z,99921.06
2018-05-13T08:19:52.806Z,99924.75
2018-05-13T08:22:20.263Z,99922.92
2018-05-13T08:24:47.668Z,99923.58
2018-05-13T08:27:15.396Z,99921.61
2018-05-13T08:29:42.803Z,99924.49
2018-05-13T08:32:10.252Z,99940.20
2018-05-13T08:34:37.877Z,99929.44
2018-05-13T08:37:05.280Z,99936.14
2018-05-13T08:39:35.160Z,99929.44
2018-05-13T08:42:02.671Z,99927.63
2018-05-13T08:44:30.334Z,99921.71
2018-05-13T08:46:57.788Z,99922.58
2018-05-13T08:49:25.382Z,99917.05
2018-05-13T08:51:53.336Z,99919.80
2018-05-13T08:54:21.335Z,99917.12
2018-05-13T08:56:49.067Z,99914.17
2018-05-13T08:59:16.476Z,99921.36
2018-05-13T09:01:44.008Z,99915.49
2018-05-13T09:04:11.525Z,99914.67
2018-05-13T09:06:39.325Z,99910.05
2018-05-13T09:09:06.733Z,99906.76
2018-05-13T09:11:34.387Z,99915.12
2018-05-13T09:14:02.377Z,99914.25
2018-05-13T09:16:29.915Z,99908.77
2018-05-13T09:18:57.462Z,99908.88
2018-05-13T09:21:24.884Z,99908.69
2018-05-13T09:23:52.552Z,99904.59
2018-05-13T09:26:20.013Z,99902.45
2018-05-13T09:28:47.540Z,99898.33
2018-05-13T09:31:15.827Z,99899.20
2018-05-13T09:33:43.351Z,99895.98
2018-05-13T09:36:10.776Z,99894.98
2018-05-13T09:38:38.395Z,99891.51
2018-05-13T09:41:05.918Z,99890.52
2018-05-13T09:43:33.477Z,99883.20
2018-05-13T09:46:01.320Z,99875.30
2018-05-13T09:48:28.860Z,99881.44
2018-05-13T09:50:56.311Z,99875.80
2018-05-13T09:53:23.996Z,99876.42
2018-05-13T09:55:51.642Z,99875.33
2018-05-13T09:58:19.137Z,99875.34
2018-05-13T10:00:46.699Z,99877.98
2018-05-13T10:03:14.191Z,99870.11
2018-05-13T10:05:41.664Z,99871.86
2018-05-13T10:08:09.115Z,99873.32
2018-05-13T10:10:36.572Z,99873.53
2018-05-13T10:13:04.091Z,99866.33
2018-05-13T10:15:31.543Z,99861.39
2018-05-13T10:17:59.431Z,99858.30
2018-05-13T10:20:26.891Z,99854.45
2018-05-13T10:22:54.410Z,99855.01
2018-05-13T10:25:21.862Z,99855.59
2018-05-13T10:27:49.340Z,99860.39
2018-05-13T10:30:16.832Z,99849.34
2018-05-13T10:32:44.308Z,99851.27
2018-05-13T10:35:11.845Z,99846.72
2018-05-13T10:37:40.713Z,99854.61
2018-05-13T10:40:08.273Z,99846.89
2018-05-13T10:42:35.821Z,99838.24
2018-05-13T10:45:03.928Z,99841.73
2018-05-13T10:47:31.348Z,99844.16
2018-05-13T10:49:58.848Z,99835.84
2018-05-13T10:52:26.519Z,99839.89
2018-05-13T10:54:54.020Z,99833.28
2018-05-13T10:57:21.909Z,99836.66
2018-05-13T10:59:49.336Z,99826.07
2018-05-13T11:02:17.129Z,99826.53
2018-05-13T11:04:44.742Z,99825.58
2018-05-13T11:07:12.170Z,99825.83
2018-05-13T11:09:40.016Z,99820.30
2018-05-13T11:12:07.484Z,99810.53
2018-05-13T11:14:35.016Z,99812.66
2018-05-13T11:17:02.481Z,99819.17
2018-05-13T11:19:30.031Z,99814.86
2018-05-13T11:21:57.456Z,99810.75
2018-05-13T11:24:25.169Z,99802.70
2018-05-13T11:26:52.815Z,99794.46
2018-05-13T11:29:20.424Z,99795.13
2018-05-13T11:31:48.088Z,99793.42
2018-05-13T11:34:15.984Z,99790.84
2018-05-13T11:36:44.743Z,99791.52
2018-05-13T11:39:12.309Z,99772.42
2018-05-13T11:41:39.891Z,99787.23
2018-05-13T11:44:07.353Z,99784.23
2018-05-13T11:46:35.177Z,99778.41
2018-05-13T11:49:02.635Z,99775.88
2018-05-13T11:51:30.441Z,99769.73
2018-05-13T11:53:58.352Z,99762.73
2018-05-13T11:56:25.866Z,99758.16
2018-05-13T11:58:53.670Z,99755.50
2018-05-13T12:01:21.224Z,99768.31
2018-05-13T12:03:48.696Z,99761.89
2018-05-13T12:06:16.118Z,99756.38
2018-05-13T12:08:43.553Z,99748.64
2018-05-13T12:11:11.551Z,99751.84
2018-05-13T12:13:38.955Z,99740.83
2018-05-13T12:16:06.618Z,99735.46
2018-05-13T12:18:34.139Z,99740.80
2018-05-13T12:21:01.545Z,99738.00
2018-05-13T12:23:28.967Z,99735.76
2018-05-13T12:25:56.423Z,99741.47
2018-05-13T12:28:23.880Z,99753.47
2018-05-13T12:30:51.537Z,99745.02
2018-05-13T12:33:19.258Z,99729.27
2018-05-13T12:35:46.655Z,99728.92
2018-05-13T12:38:14.088Z,99710.08
2018-05-13T12:40:41.512Z,99708.61
2018-05-13T12:43:09.045Z,99699.95
2018-05-13T12:45:36.449Z,99706.51
2018-05-13T12:48:03.972Z,99708.06
2018-05-13T12:50:31.407Z,99724.02
2018-05-13T12:52:58.843Z,99724.52
2018-05-13T12:55:26.261Z,99719.98
2018-05-13T12:57:56.837Z,99723.72
2018-05-13T13:00:24.288Z,99711.23
2018-05-13T13:02:51.777Z,99712.52
2018-05-13T13:05:19.220Z,99707.03
2018-05-13T13:07:46.682Z,99710.87
2018-05-13T13:10:14.068Z,99705.77
2018-05-13T13:12:41.484Z,99697.75
2018-05-13T13:15:09.140Z,99700.25
2018-05-13T13:17:37.460Z,99690.11
2018-05-13T13:20:04.975Z,99682.28
2018-05-13T13:22:32.290Z,99668.69
2018-05-13T13:24:59.715Z,99673.17
2018-05-13T13:27:27.120Z,99677.57
2018-05-13T13:29:54.591Z,99674.70
2018-05-13T13:32:23.036Z,99678.78
2018-05-13T13:34:50.435Z,99677.53
2018-05-13T13:37:18.318Z,99669.22
2018-05-13T13:39:45.780Z,99666.45
2018-05-13T13:42:13.457Z,99682.80
2018-05-13T13:44:40.959Z,99667.63
2018-05-13T13:47:08.507Z,99677.66
2018-05-13T13:49:35.918Z,99691.98
2018-05-13T13:52:03.412Z,99699.27
2018-05-13T13:54:31.969Z,99706.79
2018-05-13T13:56:59.375Z,99711.51
2018-05-13T13:59:26.874Z,99740.52
2018-05-13T14:01:54.375Z,99740.01
2018-05-13T14:04:22.023Z,99741.77
2018-05-13T14:06:49.445Z,99736.24
2018-05-13T14:09:16.946Z,99734.81
2018-05-13T14:11:44.493Z,99719.95
2018-05-13T14:14:11.928Z,99718.77
2018-05-13T14:16:39.442Z,99732.00
2018-05-13T14:19:06.844Z,99784.70
2018-05-13T14:21:34.332Z,99800.46
2018-05-13T14:24:01.944Z,99783.75
2018-05-13T14:26:29.475Z,99782.50
2018-05-13T14:28:56.944Z,99792.84
2018-05-13T14:31:24.357Z,99786.61
2018-05-13T14:33:51.835Z,99776.84
2018-05-13T14:36:19.351Z,99782.20
2018-05-13T14:38:46.856Z,99804.08
2018-05-13T14:41:14.350Z,99820.23
2018-05-13T14:43:41.835Z,99830.05
2018-05-13T14:46:09.303Z,99824.17
2018-05-13T14:48:36.708Z,99826.86
2018-05-13T14:51:04.436Z,99839.63
2018-05-13T14:53:33.644Z,99856.36
2018-05-13T14:56:01.092Z,99860.56
2018-05-13T14:58:28.753Z,99868.56
2018-05-13T15:00:56.260Z,99862.30
2018-05-13T15:03:23.663Z,99865.26
2018-05-13T15:05:51.864Z,99860.75
2018-05-13T15:08:19.915Z,99862.75
2018-05-13T15:10:47.678Z,99876.73
2018-05-13T15:13:15.092Z,99886.23
2018-05-13T15:15:42.564Z,99893.96
2018-05-13T15:18:10.170Z,99896.86
2018-05-13T15:20:39.378Z,99885.30
2018-05-13T15:23:06.829Z,99904.27
2018-05-13T15:25:34.284Z,99903.73
2018-05-13T15:28:01.697Z,99887.20
2018-05-13T15:30:29.372Z,99893.30
2018-05-13T15:32:56.775Z,99887.56
2018-05-13T15:35:24.347Z,99893.77
2018-05-13T15:37:51.793Z,99901.75
2018-05-13T15:40:19.331Z,99888.48
2018-05-13T15:42:46.960Z,99885.58
2018-05-13T15:45:14.491Z,99888.77
2018-05-13T15:47:42.072Z,99900.25
2018-05-13T15:50:09.561Z,99896.52
2018-05-13T15:52:37.253Z,99899.09
2018-05-13T15:55:04.846Z,99900.45
2018-05-13T15:57:32.257Z,99905.17
2018-05-13T15:59:59.758Z,99922.05
2018-05-13T16:02:27.171Z,99930.78
2018-05-13T16:04:54.609Z,99938.19
2018-05-13T16:07:22.044Z,99931.31
2018-05-13T16:09:49.451Z,99926.27
2018-05-13T16:12:16.974Z,99930.84
2018-05-13T16:14:44.283Z,99925.87
2018-05-13T16:17:11.994Z,99932.36
2018-05-13T16:19:39.477Z,99973.38
2018-05-13T16:22:06.948Z,99958.16
2018-05-13T16:24:34.395Z,99937.05
2018-05-13T16:27:01.792Z,99926.36
2018-05-13T16:29:29.220Z,99913.53
2018-05-13T16:31:56.619Z,99912.52
2018-05-13T16:34:24.040Z,99906.02
2018-05-13T16:36:51.443Z,99905.21
2018-05-13T16:39:18.847Z,99906.41
2018-05-13T16:41:46.475Z,99899.50
2018-05-13T16:44:13.883Z,99897.70
2018-05-13T16:46:41.288Z,99879.56
2018-05-13T16:49:08.989Z,99869.61
2018-05-13T16:51:36.409Z,99870.59
2018-05-13T16:54:03.815Z,99874.77
2018-05-13T16:56:31.235Z,99871.55
2018-05-13T16:58:58.698Z,99868.34
2018-05-13T17:01:26.460Z,99864.15
2018-05-13T17:03:53.879Z,99874.28
2018-05-13T17:06:21.289Z,99880.80
2018-05-13T17:08:48.705Z,99893.12
2018-05-13T17:11:16.109Z,99908.01
2018-05-13T17:13:43.669Z,99910.22
2018-05-13T17:16:11.076Z,99905.84
2018-05-13T17:18:38.483Z,99908.39
2018-05-13T17:21:06.227Z,99914.55
2018-05-13T17:23:33.639Z,99917.08
2018-05-13T17:26:01.036Z,99920.26
2018-05-13T17:28:28.468Z,99912.66
2018-05-13T17:30:55.871Z,99910.23
2018-05-13T17:33:23.295Z,99914.20
2018-05-13T17:35:50.728Z,99922.34
2018-05-13T17:38:18.143Z,99918.78
2018-05-13T17:40:45.572Z,99909.81
2018-05-13T17:43:12.984Z,99902.84
2018-05-13T17:45:40.399Z,99901.80
2018-05-13T17:48:07.821Z,99907.17
2018-05-13T17:50:35.228Z,99918.09
2018-05-13T17:53:02.647Z,99912.32
2018-05-13T17:55:30.048Z,99906.77
2018-05-13T17:57:57.457Z,99920.30
2018-05-13T18:00:24.872Z,99918.16
2018-05-13T18:02:52.271Z,99916.19
2018-05-13T18:05:20.378Z,99902.66
2018-05-13T18:07:47.788Z,99889.95
2018-05-13T18:10:15.205Z,99889.16
2018-05-13T18:12:42.612Z,99903.28
2018-05-13T18:15:10.072Z,99915.05
2018-05-13T18:17:37.743Z,99929.56
2018-05-13T18:20:05.143Z,99942.10
2018-05-13T18:22:32.547Z,99950.66
2018-05-13T18:24:59.969Z,99958.22
2018-05-13T18:27:27.392Z,99958.42
2018-05-13T18:29:54.811Z,99958.98
2018-05-13T18:32:22.224Z,99980.45
2018-05-13T18:34:49.644Z,100051.90
2018-05-13T18:37:17.171Z,100089.36
2018-05-13T18:39:44.610Z,100015.95
2018-05-13T18:42:12.019Z,100035.47
2018-05-13T18:44:39.459Z,100025.73
2018-05-13T18:47:06.864Z,99999.50
2018-05-13T18:49:34.280Z,99988.38
2018-05-13T18:52:01.699Z,99974.52
2018-05-13T18:54:29.189Z,99964.99
2018-05-13T18:56:56.521Z,99960.02
2018-05-13T18:59:23.920Z,99971.74
2018-05-13T19:01:51.335Z,99977.90
2018-05-13T19:04:18.757Z,99984.45
2018-05-13T19:06:46.160Z,99983.27
2018-05-13T19:09:13.564Z,99962.98
2018-05-13T19:11:40.995Z,99951.03
2018-05-13T19:14:08.626Z,99954.22
2018-05-13T19:16:36.373Z,99977.87
2018-05-13T19:19:03.868Z,100023.39
2018-05-13T19:21:31.231Z,100035.73
2018-05-13T19:23:58.677Z,100044.27
2018-05-13T19:26:26.093Z,100057.78
2018-05-13T19:28:53.499Z,100063.56
2018-05-13T19:31:20.920Z,100063.75
2018-05-13T19:33:48.350Z,100056.20
2018-05-13T19:36:15.841Z,100045.47
2018-05-13T19:38:43.326Z,100041.48
2018-05-13T19:41:11.016Z,100044.48
2018-05-13T19:43:38.430Z,100041.69
2018-05-13T19:46:05.833Z,100031.16
2018-05-13T19:48:34.881Z,100028.00
2018-05-13T19:51:03.260Z,100026.22
2018-05-13T19:53:31.031Z,100023.80
2018-05-13T19:55:58.449Z,100023.59
2018-05-13T19:58:25.872Z,100022.61
2018-05-13T20:00:53.440Z,100025.41
2018-05-13T20:03:21.042Z,100019.66
2018-05-13T20:05:48.251Z,100021.44
2018-05-13T20:08:15.676Z,100029.59
2018-05-13T20:10:43.088Z,100032.38
2018-05-13T20:13:10.824Z,100031.77
2018-05-13T20:15:38.288Z,100039.12
2018-05-13T20:18:05.923Z,100031.38
2018-05-13T20:20:35.986Z,100040.33
2018-05-13T20:23:15.106Z,100030.61
2018-05-13T20:25:42.547Z,100021.86
2018-05-13T20:28:09.996Z,100029.81
2018-05-13T20:30:37.641Z,100028.02
2018-05-13T20:33:05.971Z,100030.19
2018-05-13T20:35:33.396Z,100039.35
2018-05-13T20:38:00.828Z,100033.99
2018-05-13T20:40:28.233Z,100034.18
2018-05-13T20:42:56.055Z,100035.17
2018-05-13T20:45:23.474Z,100041.73
2018-05-13T20:47:51.096Z,100047.50
2018-05-13T20:50:18.532Z,100048.10
2018-05-13T20:52:45.973Z,100044.53
2018-05-13T20:55:13.408Z,100040.55
2018-05-13T20:57:40.906Z,100052.48
2018-05-13T21:00:08.555Z,100047.31
2018-05-13T21:02:36.296Z,100055.85
2018-05-13T21:05:03.732Z,100062.41
2018-05-13T21:07:31.169Z,100058.83
2018-05-13T21:09:58.569Z,100068.75
2018-05-13T21:12:25.973Z,100065.20
2018-05-13T21:14:53.404Z,100072.16
2018-05-13T21:17:20.838Z,100072.34
2018-05-13T21:19:48.242Z,100071.73
2018-05-13T21:22:15.668Z,100061.80
2018-05-13T21:24:43.171Z,100064.98
2018-05-13T21:27:10.600Z,100056.99
2018-05-13T21:29:38.028Z,100066.33
2018-05-13T21:32:05.451Z,100068.74
2018-05-13T21:34:33.091Z,100067.33
2018-05-13T21:37:00.547Z,100068.91
2018-05-13T21:39:27.960Z,100072.68
2018-05-13T21:41:55.760Z,100067.34
2018-05-13T21:44:23.183Z,100070.11
2018-05-13T21:46:50.588Z,100068.13
2018-05-13T21:49:18.021Z,100066.31
2018-05-13T21:51:45.429Z,100062.12
2018-05-13T21:54:12.887Z,100064.14
2018-05-13T21:56:40.292Z,100058.58
2018-05-13T21:59:07.700Z,100060.36
2018-05-13T22:01:35.119Z,100059.56
2018-05-13T22:04:02.527Z,100055.19
2018-05-13T22:06:29.949Z,100059.36
2018-05-13T22:08:57.364Z,100054.19
2018-05-13T22:11:24.785Z,100057.78
2018-05-13T22:13:52.204Z,100054.39
2018-05-13T22:16:19.632Z,100049.43
2018-05-13T22:18:47.092Z,100050.21
2018-05-13T22:21:14.499Z,100047.63
2018-05-13T22:23:41.928Z,100045.62
2018-05-13T22:26:09.335Z,100042.28
2018-05-13T22:28:37.072Z,100043.45
2018-05-13T22:31:04.489Z,100036.12
2018-05-13T22:33:31.904Z,100031.73
2018-05-13T22:35:59.333Z,100031.34
2018-05-13T22:38:26.756Z,100033.73
2018-05-13T22:40:54.185Z,100027.37
2018-05-13T22:43:21.600Z,100023.39
2018-05-13T22:45:49.039Z,100021.80
2018-05-13T22:48:16.453Z,100029.34
2018-05-13T22:50:43.860Z,100023.59
2018-05-13T22:53:11.374Z,100029.72
2018-05-13T22:55:38.708Z,100026.95
2018-05-13T22:58:06.116Z,100021.38
2018-05-13T23:00:33.560Z,100022.98
2018-05-13T23:03:01.374Z,100017.41
2018-05-13T23:05:28.803Z,100025.55
2018-05-13T23:07:56.199Z,100013.83
2018-05-13T23:10:23.959Z,100018.41
2018-05-13T23:12:51.380Z,100016.80
2018-05-13T23:15:18.801Z,100009.66
2018-05-13T23:17:46.238Z,100009.45
2018-05-13T23:20:13.655Z,100011.83
2018-05-13T23:22:41.080Z,100013.02
2018-05-13T23:25:08.506Z,100009.04
2018-05-13T23:27:35.925Z,100009.63
2018-05-13T23:30:03.336Z,100006.45
2018-05-13T23:32:30.769Z,100005.84
2018-05-13T23:34:58.179Z,100006.84
2018-05-13T23:37:25.588Z,100001.88
2018-05-13T23:39:53.013Z,100002.26
2018-05-13T23:42:20.425Z,99999.68
2018-05-13T23:44:48.236Z,100003.45
2018-05-13T23:47:15.726Z,99998.47
2018-05-13T23:49:43.060Z,99996.08
2018-05-13T23:52:10.485Z,99994.67
2018-05-13T23:54:37.899Z,99987.92
2018-05-13T23:57:05.680Z,99993.09
2018-05-13T23:59:33.086Z,99993.84
